Terminal Aerodrome Forecast
Issued by NWS Green Bay, WI

Home | Current Version | Previous Version | Graphics & Text | Print | Product List | Glossary On
Versions: 1 2 3 4 5 6 7 8 9 10 11 12 13 14 15 16 17 18 19 20 21 22 23 24 25 26 27
000
FTUS43 KGRB 281100
TAFGRB
TAF
KGRB 281137Z 2812/2912 VRB03KT P6SM SCT025 BKN035
      TEMPO 2812/2816 5SM BR SCT014 BKN022
     FM281700 12006KT P6SM SCT040 BKN200
     FM282100 12008KT P6SM SCT050 OVC080
     FM290200 11004KT 5SM -SHRA OVC040
     FM290500 12004KT 3SM SHRA OVC025=

USA.gov is the U.S. government's official web portal to all federal, state and local government web resources and services.